Latest Coastal Weather Observations for St Lawrence

IDQ60701

Issued at 12:42 am EST Thursday 11 August 2022 (issued every 10 minutes, with the page automatically refreshed every 10 minutes)

About coastal observations | Map of coastal stations | Coastal observations for QLD | Marine services | Other Formats
Station Details ID: 033210 Name: ST LAWRENCE Lat: -22.35 Lon: 149.52 Height: 9.19 m
Data from the previous 72 hours. | See also: Recent months at St Lawrence
Date/Time
EST
Wind Sea
Height
m
Swell Vis
km
Cloud Weather Temp
°C
Press
MSL
hPa
Rain since
9am
mm
Dir  Spd
kts
Gust
kts
Height
m
Period
s
Dir
11/12:30am SW 3 4 - - - - - - - 12.3 1022.3 0.0
11/12:00am WSW 4 5 - - - - - - - 12.6 1022.5 0.0
 
Date/Time
EST
Wind Sea
Height
m
Swell Vis
km
Cloud Weather Temp
°C
Press
MSL
hPa
Rain since
9am
mm
Dir  Spd
kts
Gust
kts
Height
m
Period
s
Dir
10/11:30pm SE 3 4 - - - - - - - 14.1 1022.5 0.0
10/11:00pm ESE 5 7 - - - - - - - 15.8 1022.6 0.0
10/10:30pm ESE 6 8 - - - - - - - 16.1 1022.6 0.0
10/10:00pm ESE 6 8 - - - - - - - 16.3 1022.6 0.0
10/09:30pm ESE 6 9 - - - - - - - 16.5 1022.7 0.0
10/09:00pm ESE 6 10 - - - - - - - 16.8 1022.7 0.0
10/08:30pm E 5 10 - - - - - - - 17.0 1022.6 0.0
10/08:00pm E 5 7 - - - - - - - 17.4 1022.5 0.0
10/07:30pm E 6 10 - - - - - - - 17.9 1022.3 0.0
10/07:00pm ENE 5 10 - - - - - - - 18.3 1021.9 0.0
10/06:30pm ENE 7 12 - - - - - - - 18.8 1021.5 0.0
10/06:00pm NE 5 7 - - - - - - - 19.0 1021.4 0.0
10/05:30pm NNE 6 8 - - - - - - - 20.1 1020.9 0.0
10/05:00pm N 8 12 - - - - - - - 20.9 1020.4 0.0
10/04:30pm NNE 9 13 - - - - - - - 21.5 1019.8 0.0
10/04:00pm NE 9 15 - - - - - - - 22.1 1019.6 0.0
10/03:30pm NNE 10 13 - - - - - - - 22.8 1019.6 0.0
10/03:00pm NNE 10 16 - - - - - - - 22.6 1019.7 0.0
10/02:30pm NE 4 10 - - - - - - - 23.3 1020.0 0.0
10/02:00pm ENE 7 13 - - - - - - - 23.0 1020.5 0.0
10/01:30pm E 7 11 - - - - - - - 22.3 1020.6 0.0
10/01:00pm E 5 9 - - - - - - - 23.0 1021.0 0.0
10/12:30pm E 6 14 - - - - - - - 22.5 1021.4 0.0
10/12:00pm E 6 11 - - - - - - - 21.9 1021.9 0.0
10/11:30am ENE 5 12 - - - - - - - 22.2 1022.3 0.0
10/11:00am ESE 5 9 - - - - - - - 21.1 1022.6 0.0
10/10:30am SSE 7 10 - - - - - - - 20.1 1023.1 0.0
10/10:00am SSE 7 10 - - - - - - - 19.3 1023.3 0.0
10/09:30am SSE 6 9 - - - - - - - 18.1 1023.3 0.0
10/09:00am SSE 7 10 - - - - - - - 16.3 1023.3 0.0
10/08:30am SSE 9 13 - - - - - - - 14.9 1023.0 0.0
10/08:00am SSE 6 8 - - - - - - - 12.9 1023.0 0.0
10/07:30am S 3 4 - - - - - - - 9.6 1022.8 0.0
10/07:00am SW 4 5 - - - - - - - 7.4 1022.5 0.0
10/06:30am SSW 4 5 - - - - - - - 7.3 1022.0 0.0
10/06:00am SW 3 4 - - - - - - - 7.0 1021.6 0.0
10/05:30am S 5 6 - - - - - - - 7.1 1021.0 0.0
10/05:00am SW 3 4 - - - - - - - 7.6 1020.7 0.0
10/04:30am SW 2 4 - - - - - - - 7.7 1020.5 0.0
10/04:00am CALM 0 0 - - - - - - - 7.4 1020.4 0.0
10/03:30am SW 4 5 - - - - - - - 8.7 1020.3 0.0
10/03:00am SSW 5 6 - - - - - - - 9.7 1020.6 0.0
10/02:30am SW 2 3 - - - - - - - 9.2 1020.6 0.0
10/02:00am SW 3 5 - - - - - - - 9.7 1020.7 0.0
10/01:30am SW 4 5 - - - - - - - 9.7 1021.0 0.0
10/01:00am SW 4 5 - - - - - - - 9.9 1021.1 0.0
10/12:30am WSW 4 5 - - - - - - - 10.2 1021.1 0.0
10/12:00am SW 3 5 - - - - - - - 10.4 1021.0 0.0
 
Date/Time
EST
Wind Sea
Height
m
Swell Vis
km
Cloud Weather Temp
°C
Press
MSL
hPa
Rain since
9am
mm
Dir  Spd
kts
Gust
kts
Height
m
Period
s
Dir
09/11:30pm SW 3 6 - - - - - - - 10.8 1021.2 0.0
09/11:00pm SW 3 4 - - - - - - - 10.8 1021.5 0.0
09/10:30pm SE 3 4 - - - - - - - 10.8 1021.2 0.0
09/10:00pm SE 3 4 - - - - - - - 11.2 1021.0 0.0
09/09:30pm SE 4 5 - - - - - - - 12.9 1020.9 0.0
09/09:00pm ESE 4 4 - - - - - - - 13.3 1021.0 0.0
09/08:30pm NE 3 7 - - - - - - - 14.3 1020.8 0.0
09/08:00pm SE 3 4 - - - - - - - 14.3 1020.3 0.0
09/07:30pm SE 4 7 - - - - - - - 16.1 1020.0 0.0
09/07:00pm SE 5 6 - - - - - - - 16.9 1019.4 0.0
09/06:30pm SE 2 5 - - - - - - - 15.9 1018.9 0.0
09/06:00pm CALM 0 0 - - - - - - - 16.9 1018.5 0.0
09/05:30pm ENE 1 3 - - - - - - - 20.0 1018.2 0.0
09/05:00pm SE 5 7 - - - - - - - 21.5 1017.8 0.0
09/04:30pm SSE 5 8 - - - - - - - 22.0 1017.5 0.0
09/04:00pm S 5 11 - - - - - - - 22.4 1017.4 0.0
09/03:30pm SSE 7 12 - - - - - - - 22.4 1017.2 0.0
09/03:00pm SSE 7 11 - - - - - - - 22.2 1017.4 0.0
09/02:30pm S 5 8 - - - - - - - 22.2 1017.8 0.0
09/02:00pm ESE 6 9 - - - - - - - 22.1 1018.1 0.0
09/01:30pm SSE 7 12 - - - - - - - 21.5 1018.3 0.0
09/01:00pm SE 6 11 - - - - - - - 22.0 1018.7 0.0
09/12:30pm SE 7 11 - - - - - - - 21.2 1019.3 0.0
09/12:00pm SE 7 12 - - - - - - - 20.6 1020.0 0.0
09/11:30am SSE 7 14 - - - - - - - 20.7 1020.4 0.0
09/11:00am SSE 7 11 - - - - - - - 20.0 1021.0 0.0
09/10:30am SSE 8 12 - - - - - - - 19.1 1021.3 0.0
09/10:00am SSE 11 15 - - - - - - - 18.4 1021.7 0.0
09/09:30am SSE 9 15 - - - - - - - 17.3 1021.8 0.0
09/09:00am SSE 10 13 - - - - - - - 16.2 1021.8 0.0
09/08:30am SSE 9 14 - - - - - - - 15.1 1021.5 0.0
09/08:00am SSE 7 10 - - - - - - - 13.8 1021.2 0.0
09/07:30am SSE 6 8 - - - - - - - 12.2 1021.2 0.0
09/07:00am SSE 6 8 - - - - - - - 10.7 1020.9 0.0
09/06:30am S 5 6 - - - - - - - 7.2 1020.7 0.0
09/06:00am S 4 5 - - - - - - - 7.1 1020.3 0.0
09/05:30am SSW 3 4 - - - - - - - 7.1 1020.1 0.0
09/05:00am S 5 7 - - - - - - - 8.4 1019.8 0.0
09/04:30am SSE 5 7 - - - - - - - 9.4 1019.5 0.0
09/04:00am SE 6 7 - - - - - - - 10.5 1019.3 0.0
09/03:30am SE 6 8 - - - - - - - 10.6 1019.2 0.0
09/03:00am SSW 4 5 - - - - - - - 7.1 1019.4 0.0
09/02:30am CALM 0 3 - - - - - - - 8.0 1019.4 0.0
09/02:00am SW 4 5 - - - - - - - 9.5 1019.6 0.0
09/01:30am CALM 0 3 - - - - - - - 9.3 1019.9 0.0
09/01:00am SW 3 4 - - - - - - - 10.3 1020.1 0.0
09/12:30am SW 3 4 - - - - - - - 10.4 1020.2 0.0
09/12:00am SW 3 4 - - - - - - - 10.7 1020.2 0.0
 
Date/Time
EST
Wind Sea
Height
m
Swell Vis
km
Cloud Weather Temp
°C
Press
MSL
hPa
Rain since
9am
mm
Dir  Spd
kts
Gust
kts
Height
m
Period
s
Dir
08/11:30pm WSW 3 4 - - - - - - - 10.7 1020.2 0.0
08/11:00pm WSW 3 4 - - - - - - - 10.5 1020.2 0.0
08/10:30pm WSW 2 4 - - - - - - - 11.1 1020.3 0.0
08/10:00pm S 3 5 - - - - - - - 11.1 1020.3 0.0
08/09:30pm SSE 4 5 - - - - - - - 13.0 1020.2 0.0
08/09:00pm SE 4 5 - - - - - - - 13.5 1020.1 0.0
08/08:30pm SE 4 5 - - - - - - - 14.4 1019.9 0.0
08/08:00pm SE 5 7 - - - - - - - 16.2 1019.6 0.0
08/07:30pm SE 4 6 - - - - - - - 16.0 1019.3 0.0
08/07:00pm SE 5 6 - - - - - - - 16.8 1018.9 0.0
08/06:30pm SE 5 7 - - - - - - - 17.7 1018.5 0.0
08/06:00pm SSE 6 9 - - - - - - - 18.9 1018.1 0.0
08/05:30pm SSE 7 11 - - - - - - - 20.1 1017.6 0.0
08/05:00pm SSE 7 10 - - - - - - - 21.4 1017.4 0.0
08/04:30pm SE 6 10 - - - - - - - 22.3 1017.0 0.0
08/04:00pm SSE 5 10 - - - - - - - 22.5 1016.8 0.0
08/03:30pm SSE 5 9 - - - - - - - 22.6 1016.7 0.0
08/03:00pm SE 5 9 - - - - - - - 22.6 1016.8 0.0
08/02:30pm SE 6 9 - - - - - - - 22.6 1017.1 0.0
08/02:00pm SSE 6 11 - - - - - - - 22.2 1017.3 0.0
08/01:30pm SSE 6 11 - - - - - - - 22.2 1017.5 0.0
08/01:00pm SSE 6 9 - - - - - - - 22.4 1017.9 0.0
08/12:30pm SSE 8 12 - - - - - - - 22.0 1018.5 0.0
08/12:00pm S 7 11 - - - - - - - 21.8 1019.0 0.0
08/11:30am SE 8 12 - - - - - - - 21.2 1019.6 0.0
08/11:00am SSE 8 13 - - - - - - - 20.3 1020.2 0.0
08/10:30am SE 9 14 - - - - - - - 19.7 1020.6 0.0
08/10:00am SSE 9 12 - - - - - - - 19.1 1020.8 0.0
08/09:30am SSE 9 13 - - - - - - - 17.6 1020.9 0.0
08/09:00am SSE 9 15 - - - - - - - 16.4 1020.7 0.0
08/08:30am SSE 9 15 - - - - - - - 15.4 1020.6 0.0
08/08:00am SSE 9 13 - - - - - - - 14.9 1020.1 0.0
08/07:30am SSE 7 9 - - - - - - - 13.9 1019.8 0.0
08/07:00am SSE 6 8 - - - - - - - 12.9 1019.5 0.0
08/06:30am SSE 7 10 - - - - - - - 12.7 1019.2 0.0
08/06:00am SE 6 9 - - - - - - - 12.3 1018.8 0.0
08/05:30am SSE 5 6 - - - - - - - 11.4 1018.2 0.0
08/05:00am SSW 3 4 - - - - - - - 11.2 1018.0 0.0
08/04:30am SSW 3 4 - - - - - - - 11.6 1017.7 0.0
08/04:00am SSE 5 6 - - - - - - - 12.3 1017.4 0.0
08/03:30am SSE 5 7 - - - - - - - 13.1 1017.3 0.0
08/03:00am SSE 5 7 - - - - - - - 13.4 1017.3 0.0
08/02:30am SSW 3 4 - - - - - - - 13.0 1017.3 0.0
08/02:00am CALM 0 0 - - - - - - - 13.2 1017.5 0.0
08/01:30am CALM 0 0 - - - - - - - 13.6 1017.7 0.0
08/01:00am SSW 3 4 - - - - - - - 14.7 1017.8 0.0

Other formats

Comma delimited format used in spreadsheet applications
http://www.bom.gov.au/fwo/IDQ60701/IDQ60701.95369.axf

JavaScript Object Notation format (JSON) in row-major order
http://www.bom.gov.au/fwo/IDQ60701/IDQ60701.95369.json

Data quality

Most of these data are generated automatically and are frequently updated. Quality checks on data are not normally performed. It is possible for incorrect values to appear. Refer to information at About Latest Weather Observations and please check the disclaimer before using these data.